createdAt,value
2022-10-07T00:02:15.941Z,99494.84
2022-10-07T00:04:46.698Z,99492.94
2022-10-07T00:07:16.820Z,99488.47
2022-10-07T00:09:46.691Z,99494.06
2022-10-07T00:12:16.491Z,99483.66
2022-10-07T00:14:49.059Z,99492.03
2022-10-07T00:17:19.045Z,99492.22
2022-10-07T00:19:48.951Z,99476.53
2022-10-07T00:22:18.779Z,99477.75
2022-10-07T00:24:48.745Z,99483.19
2022-10-07T00:27:18.560Z,99479.63
2022-10-07T00:29:51.057Z,99480.50
2022-10-07T00:32:20.841Z,99472.38
2022-10-07T00:34:50.683Z,99466.56
2022-10-07T00:37:20.452Z,99467.22
2022-10-07T00:39:50.205Z,99463.38
2022-10-07T00:42:19.945Z,99457.09
2022-10-07T00:44:52.334Z,99456.97
2022-10-07T00:47:27.223Z,99454.72
2022-10-07T00:50:01.427Z,99452.63
2022-10-07T00:52:33.933Z,99441.06
2022-10-07T00:55:07.842Z,99445.25
2022-10-07T00:57:39.671Z,99443.59
2022-10-07T01:00:13.763Z,99443.16
2022-10-07T01:02:44.024Z,99436.19
2022-10-07T01:05:16.987Z,99430.81
2022-10-07T01:07:48.253Z,99432.25
2022-10-07T01:10:20.397Z,99425.72
2022-10-07T01:13:06.010Z,99428.19
2022-10-07T01:15:42.361Z,99426.03
2022-10-07T01:18:19.871Z,99430.09
2022-10-07T01:20:58.052Z,99418.09
2022-10-07T01:23:44.565Z,99414.84
2022-10-07T01:26:47.979Z,99414.69
2022-10-07T01:29:21.287Z,99413.69
2022-10-07T01:31:56.877Z,99406.53
2022-10-07T01:34:29.437Z,99411.59
2022-10-07T01:37:03.120Z,99406.41
2022-10-07T01:39:40.324Z,99401.19
2022-10-07T01:42:13.419Z,99398.72
2022-10-07T01:44:44.103Z,99399.75
2022-10-07T01:47:13.870Z,99396.94
2022-10-07T01:49:43.665Z,99394.91
2022-10-07T01:52:43.493Z,99390.06
2022-10-07T01:55:38.370Z,99379.25
2022-10-07T01:58:23.553Z,99383.13
2022-10-07T02:01:01.817Z,99384.56
2022-10-07T02:03:58.835Z,99382.78
2022-10-07T02:06:38.571Z,99385.88
2022-10-07T02:09:18.904Z,99377.06
2022-10-07T02:11:57.760Z,99376.56
2022-10-07T02:14:39.774Z,99369.13
2022-10-07T02:17:16.975Z,99369.91
2022-10-07T02:19:49.650Z,99366.78
2022-10-07T02:22:21.352Z,99360.94
2022-10-07T02:24:54.684Z,99363.28
2022-10-07T02:27:28.206Z,99362.06
2022-10-07T02:30:04.291Z,99358.66
2022-10-07T02:32:36.984Z,99356.78
2022-10-07T02:35:18.935Z,99358.16
2022-10-07T02:37:52.421Z,99350.63
2022-10-07T02:40:23.253Z,99342.47
2022-10-07T02:42:59.879Z,99343.59
2022-10-07T02:45:39.439Z,99340.53
2022-10-07T02:48:18.308Z,99340.09
2022-10-07T02:50:52.571Z,99340.38
2022-10-07T02:53:24.476Z,99346.03
2022-10-07T02:55:56.353Z,99333.03
2022-10-07T02:58:28.460Z,99340.66
2022-10-07T03:01:03.668Z,99334.31
2022-10-07T03:03:33.627Z,99328.13
2022-10-07T03:06:04.350Z,99324.59
2022-10-07T03:08:35.017Z,99322.34
2022-10-07T03:11:04.859Z,99330.22
2022-10-07T03:13:35.381Z,99319.97
2022-10-07T03:16:08.084Z,99318.28
2022-10-07T03:18:37.816Z,99325.13
2022-10-07T03:21:08.786Z,99325.81
2022-10-07T03:23:38.618Z,99320.47
2022-10-07T03:26:08.679Z,99319.88
2022-10-07T03:28:39.016Z,99309.03
2022-10-07T03:31:14.425Z,99314.75
2022-10-07T03:33:44.316Z,99311.00
2022-10-07T03:36:15.279Z,99304.88
2022-10-07T03:38:45.024Z,99310.56
2022-10-07T03:41:14.732Z,99306.63
2022-10-07T03:43:44.610Z,99307.81
2022-10-07T03:46:17.508Z,99296.50
2022-10-07T03:48:47.288Z,99307.03
2022-10-07T03:51:17.322Z,99299.97
2022-10-07T03:53:47.040Z,99299.09
2022-10-07T03:56:16.812Z,99301.91
2022-10-07T03:58:46.523Z,99296.19
2022-10-07T04:01:18.949Z,99297.31
2022-10-07T04:03:48.991Z,99295.41
2022-10-07T04:06:18.800Z,99290.47
2022-10-07T04:08:49.464Z,99288.47
2022-10-07T04:11:19.276Z,99286.06
2022-10-07T04:13:49.054Z,99283.06
2022-10-07T04:16:22.339Z,99277.97
2022-10-07T04:18:52.098Z,99274.19
2022-10-07T04:21:21.799Z,99277.44
2022-10-07T04:23:51.755Z,99279.44
2022-10-07T04:26:21.609Z,99274.88
2022-10-07T04:28:51.772Z,99273.94
2022-10-07T04:31:24.343Z,99268.47
2022-10-07T04:33:54.167Z,99266.75
2022-10-07T04:36:25.115Z,99259.06
2022-10-07T04:38:54.925Z,99260.97
2022-10-07T04:41:24.667Z,99261.03
2022-10-07T04:43:57.804Z,99257.16
2022-10-07T04:46:30.537Z,99254.16
2022-10-07T04:49:00.448Z,99250.38
2022-10-07T04:51:31.311Z,99246.31
2022-10-07T04:54:01.177Z,99249.78
2022-10-07T04:56:31.517Z,99247.47
2022-10-07T04:59:01.445Z,99244.31
2022-10-07T05:01:33.791Z,99247.91
2022-10-07T05:04:03.825Z,99246.22
2022-10-07T05:06:33.661Z,99247.34
2022-10-07T05:09:03.396Z,99240.63
2022-10-07T05:11:33.131Z,99239.31
2022-10-07T05:14:03.397Z,99240.16
2022-10-07T05:16:35.885Z,99240.34
2022-10-07T05:19:05.620Z,99237.91
2022-10-07T05:21:36.063Z,99239.59
2022-10-07T05:24:05.764Z,99240.88
2022-10-07T05:26:35.542Z,99242.50
2022-10-07T05:29:07.060Z,99242.16
2022-10-07T05:31:39.536Z,99237.09
2022-10-07T05:34:09.373Z,99241.31
2022-10-07T05:36:39.091Z,99242.06
2022-10-07T05:39:09.057Z,99237.72
2022-10-07T05:41:45.386Z,99238.81
2022-10-07T05:44:15.930Z,99235.59
2022-10-07T05:46:48.187Z,99241.50
2022-10-07T05:49:17.957Z,99237.78
2022-10-07T05:51:47.629Z,99240.97
2022-10-07T05:54:17.398Z,99235.03
2022-10-07T05:56:47.227Z,99235.47
2022-10-07T05:59:17.234Z,99235.22
2022-10-07T06:01:50.158Z,99227.72
2022-10-07T06:04:20.153Z,99225.53
2022-10-07T06:06:49.873Z,99226.25
2022-10-07T06:09:32.033Z,99223.81
2022-10-07T06:12:14.222Z,99226.22
2022-10-07T06:14:44.092Z,99218.81
2022-10-07T06:17:17.220Z,99227.00
2022-10-07T06:19:46.983Z,99223.81
2022-10-07T06:22:16.687Z,99223.56
2022-10-07T06:24:46.430Z,99220.16
2022-10-07T06:27:16.114Z,99218.69
2022-10-07T06:29:45.850Z,99223.00
2022-10-07T06:32:18.172Z,99224.19
2022-10-07T06:34:47.995Z,99228.31
2022-10-07T06:37:17.892Z,99228.19
2022-10-07T06:39:47.651Z,99220.59
2022-10-07T06:42:17.415Z,99223.44
2022-10-07T06:44:47.202Z,99212.81
2022-10-07T06:47:19.544Z,99226.66
2022-10-07T06:49:49.286Z,99220.06
2022-10-07T06:52:19.064Z,99224.81
2022-10-07T06:54:48.778Z,99217.44
2022-10-07T06:57:44.222Z,99218.69
2022-10-07T07:00:09.791Z,99228.00
2022-10-07T07:02:42.206Z,99230.19
2022-10-07T07:05:17.185Z,99225.06
2022-10-07T07:07:47.125Z,99234.66
2022-10-07T07:10:17.535Z,99231.50
2022-10-07T07:12:47.803Z,99236.47
2022-10-07T07:15:17.983Z,99235.66
2022-10-07T07:17:50.363Z,99224.69
2022-10-07T07:20:20.201Z,99233.28
2022-10-07T07:22:50.296Z,99231.19
2022-10-07T07:25:20.166Z,99225.50
2022-10-07T07:27:55.330Z,99229.34
2022-10-07T07:30:28.047Z,99225.22
2022-10-07T07:33:00.819Z,99222.44
2022-10-07T07:35:32.957Z,99213.81
2022-10-07T07:38:03.250Z,99213.72
2022-10-07T07:40:33.020Z,99207.03
2022-10-07T07:43:03.639Z,99212.88
2022-10-07T07:45:34.423Z,99208.22
2022-10-07T07:48:07.011Z,99219.69
2022-10-07T07:50:36.756Z,99211.00
2022-10-07T07:53:06.448Z,99212.38
2022-10-07T07:55:36.074Z,99212.00
2022-10-07T07:58:09.651Z,99209.91
2022-10-07T08:00:41.264Z,99208.78
2022-10-07T08:03:13.558Z,99203.97
2022-10-07T08:05:43.217Z,99203.47
2022-10-07T08:08:14.686Z,99211.75
2022-10-07T08:10:47.286Z,99203.41
2022-10-07T08:13:19.377Z,99203.00
2022-10-07T08:15:49.229Z,99208.09
2022-10-07T08:18:21.887Z,99200.78
2022-10-07T08:20:59.335Z,99198.44
2022-10-07T08:23:30.438Z,99196.25
2022-10-07T08:26:01.132Z,99186.94
2022-10-07T08:28:31.440Z,99189.00
2022-10-07T08:31:05.497Z,99187.00
2022-10-07T08:33:40.814Z,99183.03
2022-10-07T08:36:14.437Z,99189.34
2022-10-07T08:38:50.542Z,99185.22
2022-10-07T08:41:36.595Z,99183.75
2022-10-07T08:44:17.971Z,99189.59
2022-10-07T08:46:55.001Z,99186.38
2022-10-07T08:49:36.815Z,99180.25
2022-10-07T08:52:18.307Z,99168.03
2022-10-07T08:54:48.070Z,99177.28
2022-10-07T08:57:24.661Z,99168.53
2022-10-07T09:00:01.665Z,99170.69
2022-10-07T09:02:36.411Z,99167.81
2022-10-07T09:05:20.546Z,99160.97
2022-10-07T09:07:54.862Z,99163.47
2022-10-07T09:10:33.862Z,99157.56
2022-10-07T09:13:09.651Z,99155.44
2022-10-07T09:15:44.921Z,99163.81
2022-10-07T09:18:22.393Z,99156.81
2022-10-07T09:20:56.750Z,99154.16
2022-10-07T09:23:31.520Z,99150.41
2022-10-07T09:26:01.292Z,99141.00
2022-10-07T09:28:34.080Z,99145.13
2022-10-07T09:31:04.802Z,99147.25
2022-10-07T09:33:44.532Z,99140.47
2022-10-07T09:36:19.137Z,99124.22
2022-10-07T09:38:52.518Z,99123.72
2022-10-07T09:41:31.417Z,99120.66
2022-10-07T09:44:05.443Z,99117.97
2022-10-07T09:46:47.028Z,99117.28
2022-10-07T09:49:43.734Z,99132.53
2022-10-07T09:52:24.691Z,99123.31
2022-10-07T09:54:56.658Z,99125.88
2022-10-07T09:57:35.360Z,99123.28
2022-10-07T10:00:27.699Z,99123.75
2022-10-07T10:03:05.172Z,99115.50
2022-10-07T10:05:37.209Z,99117.44
2022-10-07T10:08:23.808Z,99115.94
2022-10-07T10:10:55.432Z,99113.25
2022-10-07T10:13:34.336Z,99108.97
2022-10-07T10:16:05.288Z,99103.59
2022-10-07T10:18:41.566Z,99113.69
2022-10-07T10:21:32.865Z,99099.00
2022-10-07T10:24:08.838Z,99096.16
2022-10-07T10:27:00.262Z,99100.13
2022-10-07T10:29:47.705Z,99096.47
2022-10-07T10:32:28.635Z,99085.97
2022-10-07T10:35:04.129Z,99091.75
2022-10-07T10:37:53.374Z,99075.03
2022-10-07T10:40:33.104Z,99079.72
2022-10-07T10:43:16.624Z,99079.19
2022-10-07T10:45:54.067Z,99071.66
2022-10-07T10:48:36.352Z,99070.59
2022-10-07T10:51:21.519Z,99055.97
2022-10-07T10:54:01.116Z,99054.97
2022-10-07T10:56:41.532Z,99059.97
2022-10-07T10:59:37.688Z,99055.81
2022-10-07T11:02:29.549Z,99051.44
2022-10-07T11:05:03.651Z,99043.31
2022-10-07T11:07:38.519Z,99040.50
2022-10-07T11:10:20.493Z,99040.22
2022-10-07T11:12:58.418Z,99041.38
2022-10-07T11:15:32.785Z,99038.00
2022-10-07T11:18:08.463Z,99035.81
2022-10-07T11:20:44.797Z,99037.47
2022-10-07T11:23:24.087Z,99028.34
2022-10-07T11:26:00.348Z,99026.28
2022-10-07T11:28:37.041Z,99018.69
2022-10-07T11:31:12.135Z,99014.53
2022-10-07T11:33:47.269Z,99008.44
2022-10-07T11:36:20.708Z,99006.59
2022-10-07T11:38:53.210Z,99000.31
2022-10-07T11:41:30.963Z,98992.44
2022-10-07T11:44:09.865Z,98999.94
2022-10-07T11:46:43.424Z,98993.06
2022-10-07T11:49:20.652Z,98990.28
2022-10-07T11:51:57.791Z,98978.72
2022-10-07T11:54:32.735Z,98979.06
2022-10-07T11:57:03.655Z,98971.13
2022-10-07T11:59:48.484Z,98964.78
2022-10-07T12:02:51.497Z,98972.38
2022-10-07T12:05:51.397Z,98959.47
2022-10-07T12:08:30.543Z,98953.38
2022-10-07T12:11:47.384Z,98953.25
2022-10-07T12:14:43.855Z,98949.94
2022-10-07T12:17:24.131Z,98935.13
2022-10-07T12:20:45.335Z,98936.41
2022-10-07T12:23:40.203Z,98922.41
2022-10-07T12:26:46.067Z,98922.31
2022-10-07T12:29:48.537Z,98923.47
2022-10-07T12:33:04.553Z,98930.91
2022-10-07T12:35:53.971Z,98912.16
2022-10-07T12:38:33.778Z,98914.97
2022-10-07T12:41:17.158Z,98915.47
2022-10-07T12:43:52.766Z,98909.84
2022-10-07T12:46:25.316Z,98910.47
2022-10-07T12:49:05.233Z,98901.00
2022-10-07T12:51:40.591Z,98906.63
2022-10-07T12:54:20.342Z,98907.50
2022-10-07T12:56:51.252Z,98905.19
2022-10-07T12:59:47.642Z,98890.47
2022-10-07T13:02:38.413Z,98904.88
2022-10-07T13:05:39.093Z,98891.50
2022-10-07T13:08:40.308Z,98892.34
2022-10-07T13:11:47.524Z,98891.66
2022-10-07T13:14:24.247Z,98883.50
2022-10-07T13:17:02.558Z,98881.53
2022-10-07T13:19:39.651Z,98871.16
2022-10-07T13:22:18.287Z,98870.47
2022-10-07T13:24:51.679Z,98865.16
2022-10-07T13:27:24.960Z,98859.59
2022-10-07T13:29:55.097Z,98854.38
2022-10-07T13:32:29.814Z,98857.88
2022-10-07T13:35:01.489Z,98849.63
2022-10-07T13:37:36.745Z,98846.38
2022-10-07T13:40:22.854Z,98838.66
2022-10-07T13:42:59.329Z,98835.94
2022-10-07T13:45:30.596Z,98831.59
2022-10-07T13:48:00.492Z,98830.63
2022-10-07T13:50:32.602Z,98828.06
2022-10-07T13:53:05.408Z,98830.19
2022-10-07T13:55:37.524Z,98823.16
2022-10-07T13:58:08.871Z,98831.19
2022-10-07T14:00:45.337Z,98822.84
2022-10-07T14:03:18.871Z,98828.53
2022-10-07T14:05:52.076Z,98823.16
2022-10-07T14:08:28.006Z,98809.00
2022-10-07T14:11:05.790Z,98811.63
2022-10-07T14:13:38.020Z,98811.03
2022-10-07T14:16:08.205Z,98807.28
2022-10-07T14:18:38.011Z,98803.50
2022-10-07T14:21:17.113Z,98793.31
2022-10-07T14:23:49.874Z,98795.53
2022-10-07T14:26:19.679Z,98792.75
2022-10-07T14:28:49.510Z,98795.00
2022-10-07T14:31:34.889Z,98794.94
2022-10-07T14:34:27.692Z,98796.03
2022-10-07T14:37:04.378Z,98791.94
2022-10-07T14:39:39.270Z,98788.78
2022-10-07T14:42:14.426Z,98786.16
2022-10-07T14:44:44.662Z,98770.69
2022-10-07T14:47:16.536Z,98778.22
2022-10-07T14:49:46.378Z,98770.88
2022-10-07T14:52:25.259Z,98767.03
2022-10-07T14:54:58.953Z,98766.75
2022-10-07T14:57:29.266Z,98761.78
2022-10-07T14:59:59.149Z,98755.16
2022-10-07T15:02:29.392Z,98753.25
2022-10-07T15:04:59.314Z,98751.44
2022-10-07T15:07:29.361Z,98751.81
2022-10-07T15:10:01.682Z,98756.78
2022-10-07T15:12:31.775Z,98758.06
2022-10-07T15:15:01.640Z,98757.94
2022-10-07T15:17:31.629Z,98753.59
2022-10-07T15:20:01.592Z,98754.06
2022-10-07T15:22:31.515Z,98749.91
2022-10-07T15:25:03.995Z,98749.50
2022-10-07T15:27:34.285Z,98754.84
2022-10-07T15:30:04.621Z,98739.94
2022-10-07T15:32:34.459Z,98729.16
2022-10-07T15:35:04.335Z,98735.06
2022-10-07T15:37:34.383Z,98727.53
2022-10-07T15:40:08.203Z,98726.53
2022-10-07T15:42:38.158Z,98717.53
2022-10-07T15:45:10.373Z,98727.41
2022-10-07T15:47:40.290Z,98720.38
2022-10-07T15:50:10.910Z,98721.75
2022-10-07T15:52:40.654Z,98723.50
2022-10-07T15:55:13.177Z,98723.59
2022-10-07T15:57:42.911Z,98726.78
2022-10-07T16:00:14.326Z,98721.78
2022-10-07T16:02:44.878Z,98722.38
2022-10-07T16:05:14.845Z,98715.47
2022-10-07T16:07:44.556Z,98715.56
2022-10-07T16:10:16.981Z,98721.59
2022-10-07T16:12:47.045Z,98716.84
2022-10-07T16:15:24.547Z,98720.44
2022-10-07T16:17:54.498Z,98711.41
2022-10-07T16:20:28.004Z,98714.22
2022-10-07T16:22:57.961Z,98705.56
2022-10-07T16:25:30.335Z,98715.38
2022-10-07T16:28:12.512Z,98705.59
2022-10-07T16:30:50.981Z,98710.81
2022-10-07T16:33:21.597Z,98703.47
2022-10-07T16:35:51.303Z,98705.84
2022-10-07T16:38:21.835Z,98706.06
2022-10-07T16:40:57.600Z,98708.13
2022-10-07T16:43:27.442Z,98709.00
2022-10-07T16:45:57.173Z,98704.63
2022-10-07T16:48:27.522Z,98697.16
2022-10-07T16:50:58.258Z,98699.94
2022-10-07T16:53:28.807Z,98703.44
2022-10-07T16:56:04.817Z,98703.03
2022-10-07T16:58:34.876Z,98706.63
2022-10-07T17:01:04.876Z,98698.03
2022-10-07T17:03:34.625Z,98695.72
2022-10-07T17:06:04.368Z,98702.66
2022-10-07T17:08:39.977Z,98711.38
2022-10-07T17:11:28.786Z,98702.38
2022-10-07T17:13:59.328Z,98705.97
2022-10-07T17:16:30.780Z,98705.63
2022-10-07T17:19:00.609Z,98702.88
2022-10-07T17:21:30.925Z,98700.47
2022-10-07T17:24:00.964Z,98699.22
2022-10-07T17:26:33.297Z,98703.19
2022-10-07T17:29:04.734Z,98702.25
2022-10-07T17:31:34.566Z,98719.22
2022-10-07T17:34:05.546Z,98710.91
2022-10-07T17:36:36.171Z,98706.31
2022-10-07T17:39:06.770Z,98706.00
2022-10-07T17:41:40.902Z,98703.28
2022-10-07T17:44:12.145Z,98703.34
2022-10-07T17:46:43.374Z,98705.31
2022-10-07T17:49:15.026Z,98699.44
2022-10-07T17:51:45.669Z,98700.63
2022-10-07T17:54:16.489Z,98711.22
2022-10-07T17:56:51.620Z,98707.69
2022-10-07T17:59:21.316Z,98708.06
2022-10-07T18:01:51.021Z,98702.59
2022-10-07T18:04:24.856Z,98707.69
2022-10-07T18:06:54.968Z,98702.53
2022-10-07T18:09:24.709Z,98706.06
2022-10-07T18:12:09.428Z,98702.97
2022-10-07T18:14:53.984Z,98697.06
2022-10-07T18:17:24.975Z,98696.28
2022-10-07T18:19:54.827Z,98698.59
2022-10-07T18:22:24.747Z,98699.03
2022-10-07T18:24:57.268Z,98700.22
2022-10-07T18:27:29.945Z,98692.31
2022-10-07T18:30:00.753Z,98693.53
2022-10-07T18:32:30.446Z,98696.28
2022-10-07T18:35:00.141Z,98691.16
2022-10-07T18:37:30.293Z,98689.97
2022-10-07T18:40:00.860Z,98688.03
2022-10-07T18:42:33.213Z,98694.72
2022-10-07T18:45:02.976Z,98685.28
2022-10-07T18:47:32.639Z,98688.03
2022-10-07T18:50:02.614Z,98683.31
2022-10-07T18:52:32.359Z,98676.59
2022-10-07T18:55:02.062Z,98671.88
2022-10-07T18:57:34.458Z,98679.75
2022-10-07T19:00:04.128Z,98671.53
2022-10-07T19:02:33.821Z,98670.72
2022-10-07T19:05:03.583Z,98677.84
2022-10-07T19:07:33.272Z,98679.84
2022-10-07T19:10:02.944Z,98673.56
2022-10-07T19:13:02.279Z,98672.00
2022-10-07T19:15:31.978Z,98679.09
2022-10-07T19:18:01.719Z,98679.88
2022-10-07T19:20:31.412Z,98683.44
2022-10-07T19:23:01.100Z,98675.94
2022-10-07T19:25:43.218Z,98675.16
2022-10-07T19:28:15.666Z,98672.03
2022-10-07T19:30:45.424Z,98683.84
2022-10-07T19:33:15.843Z,98677.53
2022-10-07T19:35:45.782Z,98682.22
2022-10-07T19:38:16.254Z,98682.22
2022-10-07T19:40:47.138Z,98676.72
2022-10-07T19:43:19.417Z,98680.69
2022-10-07T19:45:49.168Z,98681.06
2022-10-07T19:48:18.867Z,98683.44
2022-10-07T19:50:49.000Z,98681.84
2022-10-07T19:53:18.657Z,98681.81
2022-10-07T19:55:48.563Z,98675.56
2022-10-07T19:58:20.802Z,98684.63
2022-10-07T20:00:50.588Z,98687.75
2022-10-07T20:03:20.351Z,98688.56
2022-10-07T20:05:50.051Z,98678.72
2022-10-07T20:08:19.983Z,98683.03
2022-10-07T20:10:49.635Z,98674.38
2022-10-07T20:13:21.968Z,98675.94
2022-10-07T20:15:51.684Z,98671.25
2022-10-07T20:18:21.402Z,98667.69
2022-10-07T20:20:51.085Z,98668.88
2022-10-07T20:23:20.765Z,98671.25
2022-10-07T20:25:50.433Z,98666.56
2022-10-07T20:28:22.814Z,98668.91
2022-10-07T20:30:52.535Z,98663.78
2022-10-07T20:33:22.217Z,98674.41
2022-10-07T20:35:52.908Z,98670.47
2022-10-07T20:38:22.577Z,98667.34
2022-10-07T20:41:22.316Z,98667.34
2022-10-07T20:43:55.785Z,98675.19
2022-10-07T20:46:25.613Z,98673.22
2022-10-07T20:48:55.339Z,98660.66
2022-10-07T20:51:27.246Z,98654.34
2022-10-07T20:53:56.985Z,98651.63
2022-10-07T20:56:26.763Z,98655.94
2022-10-07T20:58:59.422Z,98651.56
2022-10-07T21:01:29.194Z,98661.78
2022-10-07T21:03:59.207Z,98654.34
2022-10-07T21:06:28.966Z,98650.00
2022-10-07T21:08:58.622Z,98656.72
2022-10-07T21:11:28.388Z,98646.09
2022-10-07T21:14:00.780Z,98643.34
2022-10-07T21:16:32.527Z,98652.41
2022-10-07T21:19:02.398Z,98647.66
2022-10-07T21:21:32.270Z,98642.16
2022-10-07T21:24:02.058Z,98643.72
2022-10-07T21:26:31.816Z,98635.47
2022-10-07T21:29:04.306Z,98639.00
2022-10-07T21:31:35.823Z,98630.34
2022-10-07T21:34:08.091Z,98639.00
2022-10-07T21:36:40.436Z,98640.97
2022-10-07T21:39:10.544Z,98637.81
2022-10-07T21:41:40.659Z,98630.72
2022-10-07T21:44:15.384Z,98629.16
2022-10-07T21:46:45.778Z,98634.25
2022-10-07T21:49:16.354Z,98631.91
2022-10-07T21:51:47.298Z,98631.13
2022-10-07T21:54:17.622Z,98626.00
2022-10-07T21:56:47.775Z,98633.50
2022-10-07T21:59:20.107Z,98627.56
2022-10-07T22:01:49.975Z,98623.66
2022-10-07T22:04:21.471Z,98623.25
2022-10-07T22:07:03.603Z,98622.44
2022-10-07T22:09:33.634Z,98623.22
2022-10-07T22:12:03.345Z,98628.75
2022-10-07T22:14:35.760Z,98630.31
2022-10-07T22:17:05.427Z,98627.94
2022-10-07T22:19:35.195Z,98624.00
2022-10-07T22:22:04.941Z,98627.56
2022-10-07T22:24:34.784Z,98619.31
2022-10-07T22:27:04.616Z,98624.41
2022-10-07T22:29:37.258Z,98612.63
2022-10-07T22:32:07.551Z,98614.59
2022-10-07T22:34:49.676Z,98615.38
2022-10-07T22:37:19.409Z,98608.69
2022-10-07T22:39:49.177Z,98607.91
2022-10-07T22:42:18.999Z,98604.38
2022-10-07T22:44:51.316Z,98612.22
2022-10-07T22:47:21.302Z,98602.03
2022-10-07T22:49:51.116Z,98602.81
2022-10-07T22:52:21.075Z,98599.66
2022-10-07T22:54:51.219Z,98599.69
2022-10-07T22:57:20.889Z,98599.69
2022-10-07T22:59:53.949Z,98596.53
2022-10-07T23:02:23.755Z,98596.53
2022-10-07T23:04:53.413Z,98593.78
2022-10-07T23:07:23.094Z,98595.34
2022-10-07T23:09:52.811Z,98594.97
2022-10-07T23:12:22.484Z,98591.81
2022-10-07T23:14:54.863Z,98595.75
2022-10-07T23:17:24.545Z,98599.69
2022-10-07T23:19:54.550Z,98595.75
2022-10-07T23:22:24.230Z,98600.84
2022-10-07T23:24:54.040Z,98604.41
2022-10-07T23:27:24.566Z,98604.00
2022-10-07T23:29:56.805Z,98602.03
2022-10-07T23:32:27.429Z,98593.41
2022-10-07T23:34:57.104Z,98593.38
2022-10-07T23:37:27.012Z,98591.00
2022-10-07T23:39:56.701Z,98583.94
2022-10-07T23:42:26.471Z,98592.59
2022-10-07T23:45:01.648Z,98597.31
2022-10-07T23:47:31.387Z,98588.66
2022-10-07T23:50:01.747Z,98591.03
2022-10-07T23:52:31.670Z,98589.84
2022-10-07T23:55:01.361Z,98589.06
2022-10-07T23:57:31.003Z,98593.78
